Time;durP1;ratioP1;P1;durP2;ratioP2;P2;SDS_P1;SDS_P2;PMS_P1;PMS_P2;Temp;Humidity;BMP_temperature;BMP_pressure;BME280_temperature;BME280_humidity;BME280_pressure;Samples;Min_cycle;Max_cycle;Signal;HPM_P1;HPM_P2
2022/11/26 00:00:34;;;;;;;13.52;4.78;;;3.00;67.00;;;;;;5000911;28;20022;-68
2022/11/26 00:03:00;;;;;;;14.27;5.03;;;3.10;67.40;;;;;;4998596;28;20399;-68
2022/11/26 00:05:29;;;;;;;13.52;4.63;;;3.00;67.90;;;;;;5005657;28;20034;-68
2022/11/26 00:07:58;;;;;;;14.32;5.22;;;3.10;67.30;;;;;;5004990;28;20531;-68
2022/11/26 00:10:28;;;;;;;12.15;4.18;;;3.10;67.60;;;;;;5013011;28;20018;-68
2022/11/26 00:12:56;;;;;;;15.30;5.15;;;3.10;67.50;;;;;;5013798;28;20092;-68
2022/11/26 00:15:27;;;;;;;17.30;4.82;;;3.30;67.10;;;;;;5011385;28;20022;-69
2022/11/26 00:17:54;;;;;;;15.18;4.63;;;3.40;67.10;;;;;;5009991;28;20014;-68
2022/11/26 00:20:27;;;;;;;18.85;5.53;;;3.60;66.30;;;;;;4999576;28;20081;-68
2022/11/26 00:22:57;;;;;;;14.98;6.05;;;3.90;66.10;;;;;;5016905;28;20461;-69
2022/11/26 00:25:29;;;;;;;17.77;6.65;;;4.00;66.50;;;;;;5017162;28;20033;-69
2022/11/26 00:27:56;;;;;;;16.20;5.45;;;4.10;67.60;;;;;;5017142;28;20431;-68
2022/11/26 00:30:26;;;;;;;14.80;4.07;;;4.00;67.80;;;;;;5007856;28;20043;-67
2022/11/26 00:32:54;;;;;;;11.27;3.95;;;3.90;67.10;;;;;;5023843;28;20032;-68
2022/11/26 00:35:21;;;;;;;19.55;4.80;;;4.00;67.60;;;;;;4996955;28;20130;-68
2022/11/26 00:37:50;;;;;;;15.48;4.68;;;4.00;67.20;;;;;;5014074;28;20018;-68
2022/11/26 00:40:25;;;;;;;14.68;4.57;;;4.20;66.50;;;;;;5029890;28;20028;-69
2022/11/26 00:42:52;;;;;;;15.15;4.47;;;4.40;66.40;;;;;;5005960;28;20033;-67
2022/11/26 00:45:21;;;;;;;16.30;5.00;;;4.50;66.90;;;;;;5018469;28;20029;-67
2022/11/26 00:47:48;;;;;;;13.82;4.43;;;4.50;68.00;;;;;;5015529;28;20361;-67
2022/11/26 00:50:16;;;;;;;13.25;3.97;;;4.40;69.10;;;;;;5015777;28;20114;-69
2022/11/26 00:52:42;;;;;;;15.77;4.00;;;4.40;68.60;;;;;;5016127;28;20415;-69
2022/11/26 00:55:33;;;;;;;11.00;4.47;;;4.40;68.90;;;;;;5017081;28;20030;-69
2022/11/26 00:57:58;;;;;;;10.60;3.78;;;4.50;68.30;;;;;;5016970;28;20029;-69
2022/11/26 01:00:26;;;;;;;10.18;3.50;;;4.60;68.80;;;;;;5015150;28;20511;-69
2022/11/26 01:02:53;;;;;;;14.60;4.13;;;4.70;68.60;;;;;;5017053;28;20064;-68
2022/11/26 01:05:20;;;;;;;10.60;3.20;;;4.80;68.70;;;;;;5017131;28;20029;-68
2022/11/26 01:07:46;;;;;;;10.57;3.97;;;5.00;70.30;;;;;;5015887;28;20026;-68
2022/11/26 01:10:17;;;;;;;13.90;3.47;;;5.00;73.80;;;;;;5016846;28;20038;-69
2022/11/26 01:12:43;;;;;;;11.98;3.97;;;4.80;75.90;;;;;;4999691;28;20018;-68
2022/11/26 01:15:09;;;;;;;18.30;4.47;;;4.80;76.00;;;;;;5011759;28;20340;-69
2022/11/26 01:17:35;;;;;;;12.32;3.95;;;4.80;76.90;;;;;;5014229;28;20028;-69
2022/11/26 01:20:00;;;;;;;16.92;4.07;;;4.80;75.60;;;;;;4999183;28;20034;-69
2022/11/26 01:22:26;;;;;;;12.48;3.60;;;4.80;76.60;;;;;;5025144;28;20072;-68
2022/11/26 01:24:51;;;;;;;16.35;5.07;;;4.80;75.40;;;;;;5036643;28;20057;-69
2022/11/26 01:27:19;;;;;;;13.57;3.70;;;4.90;76.60;;;;;;5035447;28;20089;-69
2022/11/26 01:29:45;;;;;;;16.35;4.38;;;4.80;77.90;;;;;;5035270;28;20108;-69
2022/11/26 01:32:10;;;;;;;9.50;3.83;;;4.80;78.40;;;;;;5025436;28;20408;-69
2022/11/26 01:34:36;;;;;;;10.65;3.80;;;4.90;77.10;;;;;;5016974;28;20030;-69
2022/11/26 01:37:02;;;;;;;15.40;3.55;;;4.90;77.70;;;;;;5019077;28;20113;-69
2022/11/26 01:39:27;;;;;;;9.48;3.15;;;5.00;78.70;;;;;;5026513;28;20039;-69
2022/11/26 01:42:25;;;;;;;15.07;3.78;;;5.10;80.10;;;;;;5036710;28;20026;-69
2022/11/26 01:44:50;;;;;;;12.65;5.07;;;5.10;83.00;;;;;;5033459;28;20311;-69
2022/11/26 01:47:28;;;;;;;10.32;3.28;;;5.00;85.00;;;;;;5017439;28;20026;-69
2022/11/26 01:50:26;;;;;;;10.70;3.42;;;5.00;84.20;;;;;;5016102;28;20319;-69
2022/11/26 01:52:53;;;;;;;14.82;3.67;;;5.00;84.00;;;;;;5025845;28;20029;-69
2022/11/26 01:55:18;;;;;;;13.02;3.65;;;5.10;84.60;;;;;;5033535;28;20037;-69
2022/11/26 01:57:44;;;;;;;17.00;3.78;;;5.10;85.10;;;;;;5034165;28;20057;-69
2022/11/26 02:00:11;;;;;;;13.52;3.65;;;5.20;86.80;;;;;;5033878;28;20375;-69
2022/11/26 02:02:37;;;;;;;13.00;4.15;;;5.10;87.90;;;;;;5023490;28;20025;-69
2022/11/26 02:05:13;;;;;;;10.45;3.10;;;5.20;87.70;;;;;;5034709;28;20029;-69
2022/11/26 02:07:39;;;;;;;14.60;3.40;;;5.20;87.70;;;;;;5034010;28;20485;-68
2022/11/26 02:10:05;;;;;;;11.93;3.78;;;5.30;88.00;;;;;;5020916;28;20038;-69
2022/11/26 02:12:40;;;;;;;10.05;2.92;;;5.30;89.60;;;;;;5028046;28;20021;-70
2022/11/26 02:15:09;;;;;;;14.93;4.20;;;5.30;90.00;;;;;;5029235;28;20037;-69
2022/11/26 02:17:54;;;;;;;9.98;3.05;;;5.30;90.00;;;;;;5035579;28;20034;-69
2022/11/26 02:20:29;;;;;;;9.70;3.25;;;5.30;89.20;;;;;;5035672;28;20420;-69
2022/11/26 02:23:26;;;;;;;12.20;4.85;;;5.30;89.50;;;;;;5036228;28;20050;-69
2022/11/26 02:26:24;;;;;;;10.27;4.80;;;5.30;88.80;;;;;;5011284;28;20025;-69
2022/11/26 02:29:14;;;;;;;9.85;3.88;;;5.30;89.80;;;;;;5014855;28;20025;-69
2022/11/26 02:32:06;;;;;;;13.65;3.47;;;5.30;88.40;;;;;;5018945;28;20350;-69
2022/11/26 02:34:39;;;;;;;10.85;3.88;;;5.20;87.60;;;;;;5021204;28;20075;-69
2022/11/26 02:37:13;;;;;;;12.75;4.50;;;5.10;86.70;;;;;;5016357;28;20038;-69
2022/11/26 02:39:39;;;;;;;12.40;3.97;;;5.10;86.00;;;;;;5015955;28;20543;-70
2022/11/26 02:42:29;;;;;;;11.68;3.97;;;5.00;85.40;;;;;;5033246;28;20044;-69
2022/11/26 02:44:58;;;;;;;11.27;4.78;;;5.00;82.70;;;;;;5032516;28;20029;-70
2022/11/26 02:47:26;;;;;;;12.13;5.47;;;5.00;83.70;;;;;;5017978;28;20082;-69
2022/11/26 02:49:54;;;;;;;16.58;5.80;;;5.00;82.10;;;;;;5016284;28;20292;-69
2022/11/26 02:52:21;;;;;;;14.25;4.63;;;5.00;82.50;;;;;;5021860;28;20426;-70
2022/11/26 02:54:49;;;;;;;15.55;6.63;;;5.00;80.70;;;;;;5035431;28;20065;-70
2022/11/26 02:57:19;;;;;;;14.88;5.60;;;5.00;80.70;;;;;;5021513;28;20017;-70
2022/11/26 02:59:46;;;;;;;14.50;7.40;;;5.00;81.80;;;;;;5025684;28;20026;-69
2022/11/26 03:02:47;;;;;;;10.95;4.88;;;4.90;80.90;;;;;;5025109;28;20022;-69
2022/11/26 03:05:15;;;;;;;14.20;5.72;;;5.00;78.30;;;;;;4981397;28;20423;-69
2022/11/26 03:07:42;;;;;;;12.63;5.85;;;5.10;79.50;;;;;;5012489;28;20034;-69
2022/11/26 03:10:08;;;;;;;14.13;4.47;;;5.00;80.10;;;;;;5038876;28;20349;-70
2022/11/26 03:12:33;;;;;;;19.27;5.32;;;5.10;78.50;;;;;;5038795;28;20112;-69
2022/11/26 03:14:59;;;;;;;14.20;4.25;;;5.00;80.10;;;;;;5036776;28;20036;-69
2022/11/26 03:17:25;;;;;;;11.50;4.28;;;4.90;80.40;;;;;;5020707;28;20080;-69
2022/11/26 03:19:50;;;;;;;11.45;3.67;;;4.80;79.70;;;;;;5019115;28;20045;-69
2022/11/26 03:22:16;;;;;;;11.20;3.63;;;4.80;78.70;;;;;;5027555;28;20460;-69
2022/11/26 03:24:42;;;;;;;15.88;4.32;;;4.80;78.20;;;;;;5019007;28;20485;-69
2022/11/26 03:27:07;;;;;;;17.42;4.85;;;4.70;77.60;;;;;;5036527;28;20021;-69
2022/11/26 03:29:33;;;;;;;11.07;4.18;;;4.70;77.80;;;;;;5023515;28;20038;-69
2022/11/26 03:31:58;;;;;;;14.32;4.78;;;4.50;78.10;;;;;;5033952;28;20041;-68
2022/11/26 03:34:25;;;;;;;13.65;5.10;;;4.40;76.90;;;;;;5035011;28;20088;-69
2022/11/26 03:36:50;;;;;;;11.40;4.85;;;4.30;76.80;;;;;;5038521;28;20037;-69
2022/11/26 03:39:16;;;;;;;12.73;4.80;;;4.20;76.90;;;;;;5036857;28;20022;-68
2022/11/26 03:41:43;;;;;;;12.40;3.92;;;4.20;75.10;;;;;;5018726;28;20084;-69
2022/11/26 03:44:12;;;;;;;15.48;5.10;;;4.20;75.00;;;;;;5026413;28;20310;-68
2022/11/26 03:46:38;;;;;;;11.85;5.18;;;4.10;76.80;;;;;;5018283;28;20048;-70
2022/11/26 03:49:04;;;;;;;10.90;3.83;;;4.10;75.30;;;;;;5019467;28;20034;-69
2022/11/26 03:51:30;;;;;;;13.95;4.70;;;4.10;73.20;;;;;;5019342;28;20350;-68
2022/11/26 03:53:55;;;;;;;10.73;4.00;;;4.20;72.30;;;;;;5019130;28;20104;-68
2022/11/26 03:56:21;;;;;;;16.08;5.00;;;4.30;73.10;;;;;;5033598;28;20044;-69
2022/11/26 03:58:46;;;;;;;9.90;3.60;;;4.30;72.40;;;;;;5025742;28;20037;-68
2022/11/26 04:01:12;;;;;;;9.93;4.05;;;4.40;70.80;;;;;;5032641;28;20029;-68
2022/11/26 04:03:39;;;;;;;9.95;3.70;;;4.50;70.80;;;;;;5027477;28;20417;-68
2022/11/26 04:06:05;;;;;;;15.60;5.55;;;4.50;71.20;;;;;;5040189;28;20075;-68
2022/11/26 04:08:31;;;;;;;14.93;5.40;;;4.60;70.30;;;;;;5019564;28;20322;-69
2022/11/26 04:10:57;;;;;;;9.02;4.05;;;4.60;72.10;;;;;;5012883;28;20038;-68
2022/11/26 04:13:22;;;;;;;13.82;4.45;;;4.50;72.50;;;;;;5045167;28;20045;-69
2022/11/26 04:15:48;;;;;;;13.68;3.90;;;4.50;72.50;;;;;;5019904;28;20048;-69
2022/11/26 04:18:14;;;;;;;10.57;4.28;;;4.40;71.70;;;;;;5029758;28;20048;-69
2022/11/26 04:20:39;;;;;;;14.32;4.65;;;4.30;72.00;;;;;;5036711;28;20025;-69
2022/11/26 04:23:05;;;;;;;14.07;4.05;;;4.30;71.80;;;;;;5053110;28;20041;-69
2022/11/26 04:25:30;;;;;;;13.10;3.58;;;4.30;70.90;;;;;;5029495;28;20037;-69
2022/11/26 04:27:56;;;;;;;14.02;3.63;;;4.30;71.80;;;;;;5035128;28;20488;-69
2022/11/26 04:30:22;;;;;;;14.95;4.30;;;4.30;71.00;;;;;;5035029;28;20041;-68
2022/11/26 04:32:48;;;;;;;12.55;4.78;;;4.30;72.80;;;;;;5037402;28;20072;-69
2022/11/26 04:35:13;;;;;;;17.85;5.43;;;4.30;73.80;;;;;;5054787;28;20025;-69
2022/11/26 04:37:39;;;;;;;10.45;4.03;;;4.10;75.90;;;;;;5032153;28;20033;-68
2022/11/26 04:40:05;;;;;;;12.82;4.28;;;3.90;74.50;;;;;;5036319;28;20017;-68
2022/11/26 04:42:31;;;;;;;9.82;4.15;;;3.80;73.90;;;;;;5032732;28;20136;-69
2022/11/26 04:44:57;;;;;;;14.88;5.60;;;3.70;74.70;;;;;;5051559;28;20115;-69
2022/11/26 04:47:22;;;;;;;10.63;4.45;;;3.60;74.90;;;;;;5023030;28;20034;-68
2022/11/26 04:49:48;;;;;;;13.38;4.88;;;3.50;75.60;;;;;;5036119;28;20103;-68
2022/11/26 04:52:13;;;;;;;12.63;5.10;;;3.40;73.90;;;;;;5036293;28;20029;-68
2022/11/26 04:54:39;;;;;;;11.75;5.15;;;3.30;73.90;;;;;;5037001;28;20025;-68
2022/11/26 04:57:05;;;;;;;14.38;4.18;;;3.10;74.70;;;;;;5034933;28;20025;-68
2022/11/26 04:59:30;;;;;;;14.75;4.95;;;2.90;74.00;;;;;;5034966;28;20028;-68
2022/11/26 05:01:56;;;;;;;22.20;5.43;;;2.90;71.60;;;;;;5035532;28;20116;-68
2022/11/26 05:04:22;;;;;;;15.10;4.35;;;2.90;70.70;;;;;;5017420;28;20036;-69
2022/11/26 05:06:47;;;;;;;10.63;4.72;;;3.00;69.20;;;;;;5032493;28;20025;-70
2022/11/26 05:09:13;;;;;;;10.82;4.28;;;3.00;69.30;;;;;;5035712;28;20049;-69
2022/11/26 05:11:38;;;;;;;17.00;5.90;;;3.20;67.80;;;;;;5031622;28;20535;-68
2022/11/26 05:14:04;;;;;;;17.83;6.20;;;3.40;67.90;;;;;;5034754;28;20040;-68
2022/11/26 05:16:29;;;;;;;10.50;4.70;;;3.40;68.00;;;;;;5034216;28;20108;-69
2022/11/26 05:18:58;;;;;;;15.48;6.15;;;3.40;68.00;;;;;;5045240;28;20063;-68
2022/11/26 05:21:23;;;;;;;13.80;4.28;;;3.50;67.80;;;;;;5041240;28;20021;-68
2022/11/26 05:23:49;;;;;;;17.20;5.50;;;3.50;67.70;;;;;;5048446;28;20091;-69
2022/11/26 05:26:14;;;;;;;15.70;5.20;;;3.50;67.90;;;;;;5032921;28;20034;-68
2022/11/26 05:28:46;;;;;;;12.80;4.78;;;3.40;67.90;;;;;;5035248;28;20083;-69
2022/11/26 05:31:12;;;;;;;14.48;4.97;;;3.30;68.20;;;;;;5035395;28;20092;-68
2022/11/26 05:33:37;;;;;;;16.05;4.82;;;3.20;68.70;;;;;;5035559;28;20033;-69
2022/11/26 05:36:03;;;;;;;10.48;4.15;;;3.10;67.40;;;;;;5034409;28;20430;-68
2022/11/26 05:38:29;;;;;;;14.43;5.20;;;3.10;67.50;;;;;;5036321;28;20071;-69
2022/11/26 05:40:55;;;;;;;14.27;5.75;;;3.10;67.70;;;;;;5024932;28;20426;-68
2022/11/26 05:43:22;;;;;;;14.00;5.90;;;3.00;67.30;;;;;;5016435;28;20042;-69
2022/11/26 05:45:47;;;;;;;12.05;3.97;;;3.00;67.00;;;;;;5020622;28;20084;-69
2022/11/26 05:48:13;;;;;;;15.75;5.50;;;3.00;66.70;;;;;;5035122;28;20029;-68
2022/11/26 05:50:38;;;;;;;12.73;5.15;;;3.20;66.40;;;;;;5016581;28;20438;-69
2022/11/26 05:53:04;;;;;;;11.18;5.50;;;3.10;67.10;;;;;;5016401;28;20026;-68
2022/11/26 05:55:30;;;;;;;13.07;4.25;;;3.10;66.80;;;;;;5029175;28;20022;-69
2022/11/26 05:57:56;;;;;;;13.05;6.68;;;3.20;66.40;;;;;;5035057;28;20083;-68
2022/11/26 06:00:21;;;;;;;14.52;5.50;;;3.40;66.10;;;;;;5033710;28;20029;-68
2022/11/26 06:02:47;;;;;;;19.70;5.43;;;3.40;66.50;;;;;;5036189;28;20030;-68
2022/11/26 06:05:12;;;;;;;12.00;5.05;;;3.40;66.50;;;;;;5034886;28;20029;-68
2022/11/26 06:07:38;;;;;;;18.98;6.45;;;3.50;66.00;;;;;;5021827;28;20038;-69
2022/11/26 06:10:04;;;;;;;14.07;6.30;;;3.60;66.10;;;;;;5031325;28;20091;-68
2022/11/26 06:12:30;;;;;;;11.77;5.47;;;3.60;66.10;;;;;;5016209;28;20108;-68
2022/11/26 06:14:55;;;;;;;16.42;6.88;;;3.70;66.10;;;;;;5023281;28;20447;-67
2022/11/26 06:17:21;;;;;;;12.38;6.10;;;3.70;66.20;;;;;;5035175;28;20029;-68
2022/11/26 06:19:47;;;;;;;11.55;4.97;;;3.70;66.10;;;;;;5035518;28;20101;-69
2022/11/26 06:22:13;;;;;;;13.77;5.30;;;3.80;65.90;;;;;;5034755;28;20180;-69
2022/11/26 06:24:38;;;;;;;13.75;4.80;;;3.70;66.40;;;;;;5026555;28;20101;-68
2022/11/26 06:27:04;;;;;;;10.25;3.90;;;3.60;66.30;;;;;;5015567;28;20561;-68
2022/11/26 06:29:30;;;;;;;9.82;3.30;;;3.60;66.20;;;;;;5019600;28;20042;-68
2022/11/26 06:31:55;;;;;;;11.93;4.68;;;3.60;65.90;;;;;;5035687;28;20060;-68
2022/11/26 06:34:21;;;;;;;19.67;5.88;;;3.60;66.10;;;;;;5014670;28;20419;-68
2022/11/26 06:36:47;;;;;;;15.25;5.65;;;3.50;66.80;;;;;;5025440;28;20025;-69
2022/11/26 06:39:12;;;;;;;11.05;5.63;;;3.30;66.90;;;;;;5037837;28;20025;-69
2022/11/26 06:41:38;;;;;;;16.92;7.32;;;3.20;66.60;;;;;;5038790;28;20075;-68
2022/11/26 06:44:03;;;;;;;10.68;5.18;;;3.10;66.60;;;;;;5019017;28;20033;-68
2022/11/26 06:46:32;;;;;;;14.63;4.25;;;3.00;66.60;;;;;;5035623;28;20072;-69
2022/11/26 06:49:05;;;;;;;9.85;4.78;;;3.00;66.50;;;;;;5021211;28;20430;-68
2022/11/26 06:51:31;;;;;;;12.77;4.75;;;2.90;66.30;;;;;;5019683;28;20034;-68
2022/11/26 06:53:57;;;;;;;9.07;3.42;;;3.00;66.00;;;;;;5030771;28;20083;-68
2022/11/26 06:56:24;;;;;;;11.68;4.78;;;3.10;65.90;;;;;;5037006;28;20422;-68
2022/11/26 06:58:53;;;;;;;17.42;7.82;;;3.00;66.30;;;;;;5037737;28;20771;-68
2022/11/26 07:01:22;;;;;;;18.02;6.65;;;2.90;66.60;;;;;;5038574;28;20026;-69
2022/11/26 07:03:48;;;;;;;17.60;6.50;;;2.90;66.10;;;;;;5023092;28;20064;-68
2022/11/26 07:06:21;;;;;;;31.65;15.23;;;3.00;65.80;;;;;;5028988;28;20029;-68
2022/11/26 07:08:47;;;;;;;19.42;9.10;;;3.30;65.60;;;;;;5038166;28;20330;-69
2022/11/26 07:11:13;;;;;;;10.80;4.13;;;3.50;65.60;;;;;;5038139;28;20025;-69
2022/11/26 07:13:39;;;;;;;12.23;4.10;;;3.60;65.70;;;;;;5036342;28;20358;-68
2022/11/26 07:16:05;;;;;;;19.10;9.15;;;3.70;65.50;;;;;;5021861;28;20105;-68
2022/11/26 07:18:31;;;;;;;19.40;9.35;;;3.80;65.70;;;;;;5023994;28;20044;-68
2022/11/26 07:21:02;;;;;;;25.77;11.10;;;3.90;65.60;;;;;;5033092;28;20033;-68
2022/11/26 07:23:27;;;;;;;15.52;7.90;;;3.90;65.70;;;;;;5032810;28;20086;-68
2022/11/26 07:25:53;;;;;;;19.98;9.57;;;3.90;65.90;;;;;;5033511;28;20029;-69
2022/11/26 07:28:18;;;;;;;15.02;9.13;;;3.90;65.70;;;;;;5035474;28;20040;-69
2022/11/26 07:30:44;;;;;;;19.67;11.13;;;3.80;65.90;;;;;;5026666;28;20041;-68
2022/11/26 07:33:10;;;;;;;16.70;8.35;;;3.90;65.70;;;;;;5022731;28;20080;-68
2022/11/26 07:35:36;;;;;;;13.75;9.45;;;3.90;65.60;;;;;;5014318;28;20025;-68
2022/11/26 07:38:02;;;;;;;12.02;7.32;;;3.90;65.80;;;;;;5035443;28;20041;-68
2022/11/26 07:40:30;;;;;;;13.90;8.20;;;3.90;65.60;;;;;;5031919;28;20025;-68
2022/11/26 07:42:58;;;;;;;11.07;6.28;;;4.10;65.30;;;;;;5031238;28;20038;-68
2022/11/26 07:45:24;;;;;;;11.30;5.82;;;4.20;65.40;;;;;;5041327;28;20029;-68
2022/11/26 07:47:49;;;;;;;12.80;6.07;;;4.20;65.60;;;;;;5022806;28;20036;-68
2022/11/26 07:50:15;;;;;;;13.45;5.30;;;4.30;65.60;;;;;;5034857;28;20029;-68
2022/11/26 07:52:41;;;;;;;21.60;12.15;;;4.30;65.50;;;;;;5041867;28;20026;-67
2022/11/26 07:55:15;;;;;;;24.08;11.45;;;4.40;65.50;;;;;;5026065;28;20055;-67
2022/11/26 07:57:41;;;;;;;18.52;8.82;;;4.40;65.50;;;;;;5037593;28;20022;-67
2022/11/26 08:00:07;;;;;;;20.58;10.23;;;4.60;65.20;;;;;;5032143;28;20670;-68
2022/11/26 08:02:32;;;;;;;20.80;10.00;;;4.80;65.10;;;;;;5049693;28;20708;-68
2022/11/26 08:04:58;;;;;;;18.33;10.63;;;5.00;65.10;;;;;;5023102;28;20030;-69
2022/11/26 08:07:24;;;;;;;13.68;6.65;;;5.20;65.20;;;;;;5035751;28;20422;-68
2022/11/26 08:09:49;;;;;;;9.27;3.70;;;5.40;65.00;;;;;;5035893;28;20021;-68
2022/11/26 08:12:15;;;;;;;7.47;2.85;;;5.40;65.70;;;;;;5034923;28;20097;-68
2022/11/26 08:14:40;;;;;;;8.77;3.38;;;5.40;65.60;;;;;;5026171;28;20025;-69
2022/11/26 08:17:06;;;;;;;9.02;3.35;;;5.40;65.70;;;;;;5019016;28;20038;-68
2022/11/26 08:19:31;;;;;;;11.20;5.90;;;5.40;65.90;;;;;;5026481;28;20029;-68
2022/11/26 08:21:57;;;;;;;10.15;4.72;;;5.40;66.80;;;;;;5033784;28;20037;-68
2022/11/26 08:24:22;;;;;;;9.60;5.60;;;5.40;67.00;;;;;;5032286;28;20152;-68
2022/11/26 08:26:48;;;;;;;9.27;4.25;;;5.50;67.10;;;;;;5025059;28;20025;-68
2022/11/26 08:29:14;;;;;;;7.40;4.00;;;5.50;67.40;;;;;;4999387;28;20029;-67
2022/11/26 08:31:41;;;;;;;15.18;7.57;;;5.40;69.50;;;;;;5023847;28;20032;-68
2022/11/26 08:34:06;;;;;;;9.30;4.03;;;5.40;71.00;;;;;;5035177;28;20033;-68
2022/11/26 08:36:32;;;;;;;9.48;4.90;;;5.40;70.80;;;;;;5018286;28;20021;-69
2022/11/26 08:38:58;;;;;;;10.20;4.82;;;5.60;70.40;;;;;;5019595;28;20034;-68
2022/11/26 08:41:24;;;;;;;11.65;5.25;;;5.60;74.50;;;;;;5032025;28;20017;-69
2022/11/26 08:43:50;;;;;;;13.20;6.93;;;5.70;73.60;;;;;;5032591;28;20018;-69
2022/11/26 08:46:15;;;;;;;11.82;5.40;;;5.70;76.10;;;;;;5027899;28;20327;-69
2022/11/26 08:48:41;;;;;;;14.02;6.90;;;5.70;79.60;;;;;;5036261;28;20095;-68
2022/11/26 08:51:10;;;;;;;16.20;9.20;;;5.70;81.80;;;;;;5016108;28;20442;-69
2022/11/26 08:53:36;;;;;;;19.50;10.00;;;5.70;81.60;;;;;;5028315;28;20091;-68
2022/11/26 08:56:04;;;;;;;34.13;16.73;;;5.80;83.20;;;;;;5021036;28;20037;-68
2022/11/26 08:58:32;;;;;;;17.02;8.25;;;5.80;85.80;;;;;;5028194;28;20049;-68
2022/11/26 09:00:58;;;;;;;15.43;8.65;;;5.80;86.80;;;;;;5032199;28;20353;-68
2022/11/26 09:03:24;;;;;;;13.43;6.68;;;5.80;88.40;;;;;;5025728;28;20080;-68
2022/11/26 09:05:49;;;;;;;21.48;9.90;;;5.90;89.90;;;;;;5018013;28;20306;-68
2022/11/26 09:08:15;;;;;;;15.65;7.50;;;6.10;91.40;;;;;;5032401;28;20113;-69
2022/11/26 09:10:41;;;;;;;7.82;3.05;;;6.30;91.50;;;;;;5036653;28;20104;-69
2022/11/26 09:13:06;;;;;;;8.48;3.90;;;6.40;92.70;;;;;;5029408;28;20102;-69
2022/11/26 09:15:32;;;;;;;15.07;4.35;;;6.70;93.70;;;;;;5012233;28;20434;-69
2022/11/26 09:18:02;;;;;;;10.30;4.07;;;7.10;95.90;;;;;;5035405;28;20032;-69
2022/11/26 09:20:28;;;;;;;8.98;2.90;;;7.30;97.80;;;;;;5031694;28;20092;-69
2022/11/26 09:22:53;;;;;;;10.18;3.20;;;7.80;97.80;;;;;;5016681;28;20367;-69
2022/11/26 09:25:19;;;;;;;9.02;2.75;;;9.30;98.00;;;;;;5007650;28;20033;-68
2022/11/26 09:27:44;;;;;;;7.43;2.60;;;10.30;98.00;;;;;;5005806;28;20032;-68
2022/11/26 09:30:11;;;;;;;8.13;2.00;;;11.20;97.20;;;;;;5029753;28;20418;-69
2022/11/26 09:32:37;;;;;;;9.43;2.35;;;12.00;93.80;;;;;;5018868;28;20326;-69
2022/11/26 09:35:03;;;;;;;8.52;1.85;;;12.80;90.80;;;;;;5035068;28;20031;-69
2022/11/26 09:37:30;;;;;;;9.35;2.25;;;13.80;88.70;;;;;;5024425;28;20028;-69
2022/11/26 09:39:56;;;;;;;7.70;2.40;;;14.20;86.50;;;;;;5011498;28;20076;-69
2022/11/26 09:42:56;;;;;;;8.50;3.10;;;14.90;82.70;;;;;;5013623;28;20456;-69
2022/11/26 09:45:54;;;;;;;8.77;2.17;;;15.00;80.50;;;;;;5033139;28;20017;-68
2022/11/26 09:48:24;;;;;;;10.38;2.20;;;14.70;78.80;;;;;;5003070;28;20457;-69
2022/11/26 09:50:55;;;;;;;11.88;2.97;;;14.20;80.10;;;;;;5035380;28;20393;-68
2022/11/26 09:53:26;;;;;;;8.15;2.88;;;13.30;81.80;;;;;;5035191;28;20417;-68
2022/11/26 09:55:55;;;;;;;12.48;3.42;;;12.20;86.20;;;;;;5033130;28;20362;-68
2022/11/26 09:58:35;;;;;;;9.23;3.58;;;11.90;86.30;;;;;;5018349;28;20029;-68
2022/11/26 10:01:17;;;;;;;8.05;2.35;;;12.00;87.50;;;;;;5035921;28;20029;-67
2022/11/26 10:04:01;;;;;;;11.68;2.60;;;11.60;87.30;;;;;;5035909;28;20033;-68
2022/11/26 10:06:53;;;;;;;10.48;2.97;;;10.60;88.30;;;;;;5030983;28;20034;-69
2022/11/26 10:09:51;;;;;;;10.95;3.00;;;9.50;91.70;;;;;;5032148;28;20033;-69
2022/11/26 10:12:31;;;;;;;11.15;2.47;;;8.90;94.40;;;;;;5024225;28;20061;-70
2022/11/26 10:15:17;;;;;;;8.77;2.67;;;8.70;96.00;;;;;;5003091;28;20373;-69
2022/11/26 10:18:23;;;;;;;11.30;2.47;;;8.50;96.20;;;;;;5026758;28;20021;-69
2022/11/26 10:21:19;;;;;;;10.43;2.65;;;8.50;96.40;;;;;;5021999;28;20311;-67
2022/11/26 10:23:59;;;;;;;10.50;3.35;;;8.20;97.60;;;;;;5022208;28;20045;-68
2022/11/26 10:26:45;;;;;;;12.18;3.53;;;8.20;98.00;;;;;;5031964;28;20026;-67
2022/11/26 10:29:56;;;;;;;12.73;3.30;;;8.10;98.00;;;;;;5036428;28;20033;-67
2022/11/26 10:32:31;;;;;;;19.35;8.27;;;7.80;98.00;;;;;;5010520;28;20036;-68
2022/11/26 10:34:57;;;;;;;34.45;20.67;;;7.40;98.00;;;;;;5032194;28;20083;-68
2022/11/26 10:37:25;;;;;;;40.55;26.13;;;7.10;98.00;;;;;;5030044;28;20357;-68
2022/11/26 10:40:05;;;;;;;11.57;5.07;;;7.00;98.00;;;;;;5024055;28;20029;-69
2022/11/26 10:42:41;;;;;;;14.15;4.15;;;7.70;98.00;;;;;;5032956;28;20107;-67
2022/11/26 10:45:22;;;;;;;13.27;3.75;;;8.60;98.00;;;;;;5017539;28;20033;-67
2022/11/26 10:47:48;;;;;;;11.82;3.70;;;9.30;95.50;;;;;;5035301;28;20040;-67
2022/11/26 10:50:23;;;;;;;12.82;3.50;;;9.00;94.80;;;;;;5030451;28;20025;-66
2022/11/26 10:52:50;;;;;;;14.82;3.78;;;8.70;96.00;;;;;;5034602;28;20025;-68
2022/11/26 10:55:23;;;;;;;12.10;3.97;;;9.20;95.70;;;;;;5035502;28;20036;-66
2022/11/26 10:58:06;;;;;;;12.13;3.55;;;9.40;95.10;;;;;;5028871;28;20021;-69
2022/11/26 11:00:49;;;;;;;10.35;3.13;;;10.20;92.50;;;;;;5014356;28;20024;-68
2022/11/26 11:03:24;;;;;;;11.52;3.60;;;10.80;91.50;;;;;;5032714;28;20025;-68
2022/11/26 11:06:08;;;;;;;11.77;3.42;;;11.20;89.50;;;;;;5032966;28;20326;-69
2022/11/26 11:08:33;;;;;;;12.52;3.78;;;11.70;88.70;;;;;;5017037;28;20033;-68
2022/11/26 11:11:00;;;;;;;14.35;3.20;;;11.90;86.70;;;;;;5032633;28;20033;-68
2022/11/26 11:13:45;;;;;;;10.77;3.00;;;12.10;85.40;;;;;;5030388;28;20030;-69
2022/11/26 11:16:12;;;;;;;9.50;2.80;;;12.30;86.10;;;;;;5026160;28;20025;-68
2022/11/26 11:18:50;;;;;;;11.32;3.38;;;12.80;85.30;;;;;;5031915;28;20437;-68
2022/11/26 11:21:20;;;;;;;10.23;2.70;;;13.10;83.50;;;;;;5026826;28;20021;-70
2022/11/26 11:24:26;;;;;;;10.20;2.83;;;12.60;84.70;;;;;;4997439;28;1052164;-68
2022/11/26 11:26:55;;;;;;;12.00;2.90;;;12.70;84.20;;;;;;5032299;28;20300;-68
2022/11/26 11:29:37;;;;;;;13.10;4.47;;;12.60;84.50;;;;;;5008464;28;20033;-68
2022/11/26 11:32:05;;;;;;;9.45;2.88;;;12.80;83.20;;;;;;5034964;28;20033;-68
2022/11/26 11:34:32;;;;;;;13.02;3.30;;;12.60;82.70;;;;;;5034132;28;20088;-69
2022/11/26 11:37:22;;;;;;;9.15;2.85;;;12.60;81.60;;;;;;5037097;28;20168;-69
2022/11/26 11:40:12;;;;;;;10.77;4.07;;;12.20;82.60;;;;;;5033657;28;20022;-68
2022/11/26 11:42:39;;;;;;;9.27;2.72;;;11.50;84.20;;;;;;5036437;28;20033;-68
2022/11/26 11:45:22;;;;;;;12.48;3.30;;;11.20;87.40;;;;;;5033137;28;20025;-69
2022/11/26 11:47:51;;;;;;;11.02;2.47;;;10.90;87.40;;;;;;5027727;28;20060;-69
2022/11/26 11:50:35;;;;;;;9.55;2.90;;;10.40;88.40;;;;;;5034737;28;20029;-68
2022/11/26 11:53:03;;;;;;;12.48;3.50;;;9.90;89.90;;;;;;5035914;28;20025;-68
2022/11/26 11:55:43;;;;;;;9.60;2.42;;;10.10;90.60;;;;;;5028852;28;20040;-68
2022/11/26 11:58:49;;;;;;;11.50;2.70;;;10.70;89.10;;;;;;5036153;28;20029;-69
2022/11/26 12:01:29;;;;;;;11.35;2.88;;;11.10;87.00;;;;;;5033306;28;20030;-70
2022/11/26 12:04:24;;;;;;;8.02;2.72;;;11.70;86.80;;;;;;5034557;28;20369;-68
2022/11/26 12:07:24;;;;;;;9.02;2.45;;;12.20;84.20;;;;;;5036459;28;20030;-68
2022/11/26 12:10:01;;;;;;;13.13;4.93;;;12.50;82.90;;;;;;5037591;28;20330;-69
2022/11/26 12:12:26;;;;;;;14.95;7.75;;;12.70;82.30;;;;;;5018133;28;20108;-68
2022/11/26 12:15:21;;;;;;;16.45;6.47;;;12.60;81.30;;;;;;5029251;28;20100;-68
2022/11/26 12:17:50;;;;;;;;;;;12.70;82.00;;;;;;5037133;28;20064;-69
2022/11/26 12:20:30;;;;;;;11.13;2.88;;;13.00;80.50;;;;;;5019289;28;19992;-68
2022/11/26 12:23:17;;;;;;;11.20;2.60;;;12.80;79.50;;;;;;5037488;28;20346;-69
2022/11/26 12:25:46;;;;;;;9.68;2.50;;;12.80;78.90;;;;;;5036487;28;20026;-68
2022/11/26 12:28:21;;;;;;;11.10;2.35;;;12.70;78.20;;;;;;5032974;28;20076;-69
2022/11/26 12:31:13;;;;;;;9.27;2.20;;;12.40;79.20;;;;;;5016529;28;20029;-68
2022/11/26 12:33:46;;;;;;;12.48;2.75;;;12.50;79.00;;;;;;5015357;28;20033;-68
2022/11/26 12:36:42;;;;;;;8.38;2.28;;;12.20;79.40;;;;;;5037342;28;20057;-69
2022/11/26 12:39:35;;;;;;;9.80;2.33;;;12.10;81.30;;;;;;5001426;28;20112;-68
2022/11/26 12:42:09;;;;;;;11.38;3.05;;;12.20;78.90;;;;;;5017638;28;20026;-68
2022/11/26 12:44:38;;;;;;;10.77;2.63;;;12.20;79.60;;;;;;5029732;28;20093;-68
2022/11/26 12:47:16;;;;;;;9.45;2.83;;;11.70;81.20;;;;;;5037477;28;20044;-69
2022/11/26 12:50:03;;;;;;;8.98;2.45;;;11.50;82.50;;;;;;5040741;28;20022;-69
2022/11/26 12:52:40;;;;;;;11.00;2.45;;;11.00;82.50;;;;;;5050742;28;20406;-68
2022/11/26 12:55:34;;;;;;;9.88;2.90;;;10.50;83.90;;;;;;5007381;28;20032;-68
2022/11/26 12:58:14;;;;;;;8.10;2.33;;;10.10;85.70;;;;;;5024443;28;20025;-68
2022/11/26 13:00:40;;;;;;;12.43;3.33;;;10.10;87.40;;;;;;5006736;28;20021;-68
2022/11/26 13:03:12;;;;;;;15.68;4.65;;;10.40;87.00;;;;;;5052382;28;20304;-68